KHRX

Hereford Municipal Airport

Hereford, Texas, USA
METAR KHRX 200515Z AUTO 16019G24KT 10SM CLR 25/18 A2995 RMK AO2 T02450178
Observed Flight Rules
Jun-20 @ 05:15 UTC (25 minutes ago) Visual Flight Rules
Wind Visibility Clouds
160° at 19 knots
 Gusting to 24 knots
10 miles
  • Clear skies
Temperatures Readings
Current 25°C / 77°F
Dewpoint 18°C / 64°F
Humidity 65%
Altimeter 29.95" Hg
Pressure 1014 hPa
Elevation 1154
METAR KHRX 200515Z AUTO 16019G24KT 10SM CLR 25/18 A2995 RMK AO2 T02450178
Observed Flight Rules
Jun-20 @ 05:15 UTC
(25 minutes ago)
VFR
Wind Visibility
160° at 19 knots
 Gusting to 24 knots
10 miles
Clouds
  • Clear skies
Temperature Dewpoint
25°C / 77°F 18°C / 64°F
Humidity Altimeter Pressure
65% 29.95" Hg 1014 hPa